sensor_id;sensor_type;location;lat;lon;timestamp;pressure;altitude;pressure_sealevel;temperature;humidity
54918;BME280;40818;50.562;7.454;2023-05-19T00:01:35;98512.00;;;7.55;80.54
54918;BME280;40818;50.562;7.454;2023-05-19T00:11:43;98501.91;;;7.48;82.31
54918;BME280;40818;50.562;7.454;2023-05-19T00:21:49;98498.25;;;7.32;83.03
54918;BME280;40818;50.562;7.454;2023-05-19T00:31:53;98497.47;;;7.30;81.24
54918;BME280;40818;50.562;7.454;2023-05-19T00:41:59;98489.31;;;7.18;81.57
54918;BME280;40818;50.562;7.454;2023-05-19T00:52:05;98489.66;;;7.09;81.93
54918;BME280;40818;50.562;7.454;2023-05-19T01:02:11;98483.81;;;7.06;80.41
54918;BME280;40818;50.562;7.454;2023-05-19T01:12:15;98483.34;;;6.94;78.90
54918;BME280;40818;50.562;7.454;2023-05-19T01:22:37;98481.75;;;6.92;77.67
54918;BME280;40818;50.562;7.454;2023-05-19T01:32:47;98487.25;;;6.82;77.35
54918;BME280;40818;50.562;7.454;2023-05-19T01:42:53;98487.59;;;6.73;76.87
54918;BME280;40818;50.562;7.454;2023-05-19T01:53:00;98472.56;;;6.61;79.31
54918;BME280;40818;50.562;7.454;2023-05-19T02:03:12;98471.56;;;6.41;84.49
54918;BME280;40818;50.562;7.454;2023-05-19T02:13:25;98473.44;;;6.38;80.40
54918;BME280;40818;50.562;7.454;2023-05-19T02:23:32;98471.81;;;6.35;79.37
54918;BME280;40818;50.562;7.454;2023-05-19T02:33:38;98462.63;;;6.28;79.14
54918;BME280;40818;50.562;7.454;2023-05-19T02:43:42;98472.31;;;6.21;79.42
54918;BME280;40818;50.562;7.454;2023-05-19T02:53:48;98474.25;;;6.14;79.93
54918;BME280;40818;50.562;7.454;2023-05-19T03:03:52;98467.59;;;6.09;79.93
54918;BME280;40818;50.562;7.454;2023-05-19T03:13:58;98456.72;;;6.01;80.20
54918;BME280;40818;50.562;7.454;2023-05-19T03:24:01;98462.81;;;5.98;80.50
54918;BME280;40818;50.562;7.454;2023-05-19T03:34:07;98454.53;;;5.88;80.50
54918;BME280;40818;50.562;7.454;2023-05-19T03:44:11;98457.38;;;5.80;81.23
54918;BME280;40818;50.562;7.454;2023-05-19T03:54:17;98460.16;;;5.74;81.88
54918;BME280;40818;50.562;7.454;2023-05-19T04:04:21;98467.09;;;5.72;82.11
54918;BME280;40818;50.562;7.454;2023-05-19T04:14:28;98471.22;;;5.78;81.63
54918;BME280;40818;50.562;7.454;2023-05-19T04:24:31;98471.84;;;5.85;85.95
54918;BME280;40818;50.562;7.454;2023-05-19T04:34:39;98466.78;;;5.81;88.36
54918;BME280;40818;50.562;7.454;2023-05-19T04:44:46;98464.50;;;5.99;91.29
54918;BME280;40818;50.562;7.454;2023-05-19T04:54:54;98477.28;;;6.26;92.25
54918;BME280;40818;50.562;7.454;2023-05-19T05:04:58;98475.63;;;6.72;98.00
54918;BME280;40818;50.562;7.454;2023-05-19T05:15:06;98469.28;;;7.03;100.00
54918;BME280;40818;50.562;7.454;2023-05-19T05:25:12;98476.22;;;7.66;97.36
54918;BME280;40818;50.562;7.454;2023-05-19T05:35:20;98472.59;;;8.30;94.10
54918;BME280;40818;50.562;7.454;2023-05-19T05:45:25;98470.47;;;9.51;89.80
54918;BME280;40818;50.562;7.454;2023-05-19T05:55:34;98470.13;;;10.44;83.62
54918;BME280;40818;50.562;7.454;2023-05-19T06:05:39;98473.28;;;11.44;74.57
54918;BME280;40818;50.562;7.454;2023-05-19T06:15:46;98466.47;;;12.60;71.03
54918;BME280;40818;50.562;7.454;2023-05-19T06:25:58;98457.75;;;13.16;66.37
54918;BME280;40818;50.562;7.454;2023-05-19T06:36:04;98456.53;;;14.52;64.20
54918;BME280;40818;50.562;7.454;2023-05-19T06:46:10;98458.00;;;14.93;59.03
54918;BME280;40818;50.562;7.454;2023-05-19T06:56:16;98458.09;;;16.45;55.78
54918;BME280;40818;50.562;7.454;2023-05-19T07:06:21;98450.81;;;17.48;53.22
54918;BME280;40818;50.562;7.454;2023-05-19T07:16:28;98447.84;;;17.41;51.92
54918;BME280;40818;50.562;7.454;2023-05-19T07:26:33;98442.97;;;18.52;52.52
54918;BME280;40818;50.562;7.454;2023-05-19T07:36:39;98446.66;;;20.07;49.74
54918;BME280;40818;50.562;7.454;2023-05-19T07:46:42;98442.72;;;19.64;44.24
54918;BME280;40818;50.562;7.454;2023-05-19T07:56:48;98431.16;;;20.04;44.76
54918;BME280;40818;50.562;7.454;2023-05-19T08:06:51;98432.38;;;20.10;43.98
54918;BME280;40818;50.562;7.454;2023-05-19T08:16:59;98438.72;;;19.21;42.28
54918;BME280;40818;50.562;7.454;2023-05-19T08:27:03;98420.38;;;18.90;44.17
54918;BME280;40818;50.562;7.454;2023-05-19T08:37:09;98409.50;;;18.44;46.00
54918;BME280;40818;50.562;7.454;2023-05-19T08:47:13;98407.50;;;18.36;45.69
54918;BME280;40818;50.562;7.454;2023-05-19T08:57:21;98403.59;;;18.81;47.60
54918;BME280;40818;50.562;7.454;2023-05-19T09:07:28;98397.56;;;18.90;42.87
54918;BME280;40818;50.562;7.454;2023-05-19T09:17:36;98388.44;;;20.01;42.80
54918;BME280;40818;50.562;7.454;2023-05-19T09:27:40;98381.63;;;19.12;41.42
54918;BME280;40818;50.562;7.454;2023-05-19T09:37:49;98376.34;;;17.91;43.30
54918;BME280;40818;50.562;7.454;2023-05-19T09:47:52;98374.69;;;17.90;44.19
54918;BME280;40818;50.562;7.454;2023-05-19T09:57:58;98370.16;;;18.93;41.81
54918;BME280;40818;50.562;7.454;2023-05-19T10:08:04;98366.09;;;18.79;42.04
54918;BME280;40818;50.562;7.454;2023-05-19T10:18:14;98357.75;;;18.45;40.96
54918;BME280;40818;50.562;7.454;2023-05-19T10:28:21;98349.13;;;18.42;42.23
54918;BME280;40818;50.562;7.454;2023-05-19T10:38:40;98350.34;;;19.75;42.98
54918;BME280;40818;50.562;7.454;2023-05-19T10:48:46;98347.94;;;20.02;39.99
54918;BME280;40818;50.562;7.454;2023-05-19T10:58:52;98343.53;;;19.92;41.64
54918;BME280;40818;50.562;7.454;2023-05-19T11:08:57;98332.91;;;21.82;38.93
54918;BME280;40818;50.562;7.454;2023-05-19T11:19:05;98324.94;;;21.74;36.56
54918;BME280;40818;50.562;7.454;2023-05-19T11:29:09;98319.63;;;22.60;34.31
54918;BME280;40818;50.562;7.454;2023-05-19T11:39:15;98312.38;;;22.62;37.15
54918;BME280;40818;50.562;7.454;2023-05-19T11:49:19;98304.41;;;21.68;34.33
54918;BME280;40818;50.562;7.454;2023-05-19T11:59:31;98300.88;;;21.07;33.53
54918;BME280;40818;50.562;7.454;2023-05-19T12:09:35;98282.41;;;20.53;34.78
54918;BME280;40818;50.562;7.454;2023-05-19T12:19:42;98280.66;;;20.71;37.77
54918;BME280;40818;50.562;7.454;2023-05-19T12:29:49;98278.72;;;21.00;34.33
54918;BME280;40818;50.562;7.454;2023-05-19T12:40:08;98259.16;;;21.10;33.72
54918;BME280;40818;50.562;7.454;2023-05-19T12:50:12;98247.41;;;22.00;34.88
54918;BME280;40818;50.562;7.454;2023-05-19T13:00:19;98253.28;;;21.77;34.37
54918;BME280;40818;50.562;7.454;2023-05-19T13:10:25;98238.44;;;20.71;34.54
54918;BME280;40818;50.562;7.454;2023-05-19T13:20:32;98237.25;;;21.10;34.77
54918;BME280;40818;50.562;7.454;2023-05-19T13:30:36;98225.72;;;20.93;33.54
54918;BME280;40818;50.562;7.454;2023-05-19T13:40:43;98218.38;;;20.60;34.04
54918;BME280;40818;50.562;7.454;2023-05-19T13:50:46;98211.97;;;21.07;36.50
54918;BME280;40818;50.562;7.454;2023-05-19T14:00:54;98211.84;;;21.52;34.87
54918;BME280;40818;50.562;7.454;2023-05-19T14:10:59;98210.56;;;20.95;36.85
54918;BME280;40818;50.562;7.454;2023-05-19T14:21:05;98213.25;;;19.49;36.97
54918;BME280;40818;50.562;7.454;2023-05-19T14:31:10;98193.56;;;19.81;35.39
54918;BME280;40818;50.562;7.454;2023-05-19T14:41:16;98184.47;;;19.66;35.70
54918;BME280;40818;50.562;7.454;2023-05-19T14:51:19;98190.84;;;18.98;38.20
54918;BME280;40818;50.562;7.454;2023-05-19T15:01:25;98181.19;;;18.59;40.00
54918;BME280;40818;50.562;7.454;2023-05-19T15:11:29;98172.47;;;19.25;40.44
54918;BME280;40818;50.562;7.454;2023-05-19T15:21:34;98184.25;;;18.35;40.64
54918;BME280;40818;50.562;7.454;2023-05-19T15:31:38;98185.50;;;18.21;41.68
54918;BME280;40818;50.562;7.454;2023-05-19T15:41:44;98178.84;;;18.07;42.05
54918;BME280;40818;50.562;7.454;2023-05-19T15:51:47;98170.63;;;17.81;42.87
54918;BME280;40818;50.562;7.454;2023-05-19T16:01:53;98167.53;;;17.56;43.10
54918;BME280;40818;50.562;7.454;2023-05-19T16:11:57;98149.88;;;17.68;45.07
54918;BME280;40818;50.562;7.454;2023-05-19T16:22:03;98133.28;;;17.67;43.79
54918;BME280;40818;50.562;7.454;2023-05-19T16:32:07;98141.00;;;17.59;45.37
54918;BME280;40818;50.562;7.454;2023-05-19T16:52:59;98136.09;;;17.25;45.12
54918;BME280;40818;50.562;7.454;2023-05-19T17:03:30;98135.66;;;16.89;45.99
54918;BME280;40818;50.562;7.454;2023-05-19T17:13:38;98144.09;;;16.71;48.00
54918;BME280;40818;50.562;7.454;2023-05-19T17:23:44;98144.63;;;16.44;48.03
54918;BME280;40818;50.562;7.454;2023-05-19T17:33:50;98143.53;;;16.47;48.01
54918;BME280;40818;50.562;7.454;2023-05-19T17:54:52;98168.97;;;16.02;50.11
54918;BME280;40818;50.562;7.454;2023-05-19T18:04:56;98163.00;;;16.00;49.56
54918;BME280;40818;50.562;7.454;2023-05-19T18:15:03;98168.16;;;15.91;50.22
54918;BME280;40818;50.562;7.454;2023-05-19T18:25:08;98174.97;;;15.82;51.11
54918;BME280;40818;50.562;7.454;2023-05-19T18:35:15;98182.34;;;15.54;52.10
54918;BME280;40818;50.562;7.454;2023-05-19T18:45:23;98193.53;;;15.11;53.54
54918;BME280;40818;50.562;7.454;2023-05-19T18:55:46;98204.41;;;14.71;53.04
54918;BME280;40818;50.562;7.454;2023-05-19T19:05:52;98202.19;;;14.53;53.00
54918;BME280;40818;50.562;7.454;2023-05-19T19:15:58;98213.72;;;14.26;53.95
54918;BME280;40818;50.562;7.454;2023-05-19T19:26:02;98211.63;;;14.07;53.73
54918;BME280;40818;50.562;7.454;2023-05-19T19:36:28;98208.75;;;13.86;54.88
54918;BME280;40818;50.562;7.454;2023-05-19T19:46:31;98230.09;;;13.67;55.25
54918;BME280;40818;50.562;7.454;2023-05-19T19:56:37;98231.19;;;13.39;57.29
54918;BME280;40818;50.562;7.454;2023-05-19T20:06:40;98230.44;;;13.11;58.38
54918;BME280;40818;50.562;7.454;2023-05-19T20:16:46;98240.63;;;13.01;59.29
54918;BME280;40818;50.562;7.454;2023-05-19T20:27:39;98247.63;;;12.88;59.92
54918;BME280;40818;50.562;7.454;2023-05-19T20:37:45;98259.31;;;12.82;60.89
54918;BME280;40818;50.562;7.454;2023-05-19T20:58:43;98268.28;;;12.51;62.26
54918;BME280;40818;50.562;7.454;2023-05-19T21:08:46;98259.16;;;12.31;62.38
54918;BME280;40818;50.562;7.454;2023-05-19T21:41:00;98256.06;;;11.82;63.15
54918;BME280;40818;50.562;7.454;2023-05-19T22:12:59;98256.31;;;11.36;65.10
54918;BME280;40818;50.562;7.454;2023-05-19T22:34:12;98234.00;;;11.03;68.36
54918;BME280;40818;50.562;7.454;2023-05-19T23:06:05;98231.66;;;10.53;70.30
54918;BME280;40818;50.562;7.454;2023-05-19T23:16:08;98220.63;;;10.50;70.24
54918;BME280;40818;50.562;7.454;2023-05-19T23:26:14;98223.63;;;10.42;71.72
54918;BME280;40818;50.562;7.454;2023-05-19T23:36:18;98222.47;;;10.32;72.45
54918;BME280;40818;50.562;7.454;2023-05-19T23:46:25;98216.31;;;10.34;71.86
54918;BME280;40818;50.562;7.454;2023-05-19T23:56:28;98214.69;;;10.32;71.34
